createdAt,value
2023-03-29T00:01:09.151Z,62.64
2023-03-29T00:03:49.307Z,62.83
2023-03-29T00:06:22.446Z,62.88
2023-03-29T00:09:01.998Z,62.79
2023-03-29T00:12:00.436Z,62.66
2023-03-29T00:14:31.207Z,63.08
2023-03-29T00:17:13.280Z,63.08
2023-03-29T00:19:46.469Z,63.08
2023-03-29T00:22:20.240Z,63.08
2023-03-29T00:24:49.392Z,63.42
2023-03-29T00:27:22.294Z,63.36
2023-03-29T00:30:01.972Z,63.22
2023-03-29T00:32:31.523Z,63.31
2023-03-29T00:35:01.497Z,63.48
2023-03-29T00:37:33.160Z,63.67
2023-03-29T00:40:01.841Z,63.41
2023-03-29T00:42:32.777Z,63.34
2023-03-29T00:45:13.128Z,63.54
2023-03-29T00:47:58.242Z,63.62
2023-03-29T00:50:44.103Z,64.12
2023-03-29T00:53:22.032Z,64.04
2023-03-29T00:55:58.768Z,64.05
2023-03-29T00:58:38.293Z,64.26
2023-03-29T01:01:19.649Z,64.31
2023-03-29T01:04:18.281Z,64.44
2023-03-29T01:07:00.678Z,64.54
2023-03-29T01:09:36.154Z,65.15
2023-03-29T01:12:17.333Z,65.22
2023-03-29T01:15:02.184Z,65.52
2023-03-29T01:17:31.818Z,65.61
2023-03-29T01:20:11.015Z,65.59
2023-03-29T01:23:04.020Z,65.96
2023-03-29T01:25:45.584Z,66.19
2023-03-29T01:28:32.295Z,66.12
2023-03-29T01:31:19.813Z,66.29
2023-03-29T01:33:59.146Z,66.26
2023-03-29T01:36:51.797Z,66.36
2023-03-29T01:39:22.190Z,66.09
2023-03-29T01:42:13.413Z,66.03
2023-03-29T01:44:54.205Z,65.85
2023-03-29T01:47:45.632Z,65.99
2023-03-29T01:50:23.315Z,66.16
2023-03-29T01:53:03.157Z,66.07
2023-03-29T01:55:45.642Z,66.37
2023-03-29T01:58:20.413Z,66.63
2023-03-29T02:00:54.302Z,66.24
2023-03-29T02:03:42.493Z,66.49
2023-03-29T02:06:14.831Z,66.67
2023-03-29T02:08:50.056Z,66.71
2023-03-29T02:11:26.233Z,66.94
2023-03-29T02:14:19.448Z,67.25
2023-03-29T02:16:50.936Z,67.29
2023-03-29T02:19:30.570Z,67.61
2023-03-29T02:22:10.122Z,67.48
2023-03-29T02:24:51.293Z,67.44
2023-03-29T02:27:22.145Z,67.35
2023-03-29T02:29:50.824Z,67.10
2023-03-29T02:32:36.002Z,66.83
2023-03-29T02:35:26.906Z,66.75
2023-03-29T02:37:58.038Z,66.69
2023-03-29T02:40:33.708Z,66.66
2023-03-29T02:43:04.013Z,66.54
2023-03-29T02:45:33.742Z,66.50
2023-03-29T02:48:10.434Z,66.51
2023-03-29T02:50:42.995Z,66.51
2023-03-29T02:53:44.979Z,66.31
2023-03-29T02:56:18.755Z,66.36
2023-03-29T02:58:50.628Z,66.40
2023-03-29T03:01:26.507Z,66.19
2023-03-29T03:03:58.352Z,66.18
2023-03-29T03:06:27.745Z,66.06
2023-03-29T03:09:02.370Z,66.06
2023-03-29T03:11:43.745Z,65.93
2023-03-29T03:14:19.296Z,65.94
2023-03-29T03:16:52.984Z,66.06
2023-03-29T03:19:28.038Z,65.85
2023-03-29T03:21:59.055Z,65.83
2023-03-29T03:24:34.722Z,65.75
2023-03-29T03:27:08.684Z,65.89
2023-03-29T03:29:47.701Z,65.85
2023-03-29T03:32:20.833Z,65.75
2023-03-29T03:35:20.052Z,65.81
2023-03-29T03:37:53.962Z,65.62
2023-03-29T03:40:30.396Z,65.48
2023-03-29T03:43:02.090Z,65.51
2023-03-29T03:45:38.842Z,65.53
2023-03-29T03:48:28.485Z,65.33
2023-03-29T03:51:05.411Z,65.18
2023-03-29T03:53:43.107Z,65.20
2023-03-29T03:56:20.810Z,65.21
2023-03-29T03:59:33.015Z,65.26
2023-03-29T04:02:13.501Z,65.21
2023-03-29T04:05:03.248Z,64.94
2023-03-29T04:07:39.508Z,65.02
2023-03-29T04:10:53.455Z,65.01
2023-03-29T04:13:33.115Z,65.12
2023-03-29T04:16:43.136Z,65.10
2023-03-29T04:19:44.823Z,64.85
2023-03-29T04:22:27.179Z,64.92
2023-03-29T04:25:00.838Z,64.95
2023-03-29T04:27:58.595Z,64.74
2023-03-29T04:30:49.186Z,64.70
2023-03-29T04:33:47.889Z,64.69
2023-03-29T04:36:27.740Z,64.78
2023-03-29T04:39:01.954Z,64.62
2023-03-29T04:42:11.691Z,64.80
2023-03-29T04:44:49.154Z,64.83
2023-03-29T04:47:30.125Z,64.87
2023-03-29T04:50:05.419Z,64.92
2023-03-29T04:52:51.123Z,64.83
2023-03-29T04:55:35.793Z,65.03
2023-03-29T04:58:25.198Z,65.09
2023-03-29T05:01:25.807Z,64.79
2023-03-29T05:04:19.274Z,64.86
2023-03-29T05:07:15.590Z,64.85
2023-03-29T05:09:50.091Z,64.73
2023-03-29T05:12:27.996Z,64.67
2023-03-29T05:15:10.829Z,64.59
2023-03-29T05:17:45.877Z,64.57
2023-03-29T05:20:29.776Z,64.50
2023-03-29T05:23:27.143Z,64.54
2023-03-29T05:26:26.659Z,64.63
2023-03-29T05:29:07.105Z,64.44
2023-03-29T05:31:45.762Z,64.60
2023-03-29T05:34:22.917Z,64.59
2023-03-29T05:37:06.588Z,64.57
2023-03-29T05:40:08.203Z,64.49
2023-03-29T05:43:18.470Z,64.28
2023-03-29T05:46:12.554Z,64.07
2023-03-29T05:49:18.813Z,63.66
2023-03-29T05:52:21.716Z,63.49
2023-03-29T05:55:15.170Z,63.44
2023-03-29T05:58:12.434Z,63.54
2023-03-29T06:02:11.902Z,63.68
2023-03-29T06:04:57.780Z,63.58
2023-03-29T06:07:43.215Z,63.41
2023-03-29T06:11:10.256Z,63.15
2023-03-29T06:14:27.917Z,62.52
2023-03-29T06:17:18.758Z,61.72
2023-03-29T06:20:14.535Z,60.93
2023-03-29T06:23:14.339Z,60.34
2023-03-29T06:25:52.766Z,60.12
2023-03-29T06:28:22.025Z,60.04
2023-03-29T06:30:51.196Z,60.02
2023-03-29T06:33:20.866Z,60.17
2023-03-29T06:36:14.130Z,59.89
2023-03-29T06:38:45.788Z,59.61
2023-03-29T06:41:30.876Z,59.27
2023-03-29T06:44:09.157Z,59.06
2023-03-29T06:46:44.877Z,58.88
2023-03-29T06:49:16.985Z,58.80
2023-03-29T06:52:00.510Z,58.77
2023-03-29T06:54:29.294Z,58.91
2023-03-29T06:57:03.068Z,59.07
2023-03-29T06:59:36.214Z,58.79
2023-03-29T07:02:26.575Z,58.38
2023-03-29T07:05:01.630Z,58.47
2023-03-29T07:08:11.770Z,58.43
2023-03-29T07:10:53.624Z,58.29
2023-03-29T07:13:49.354Z,57.75
2023-03-29T07:16:24.317Z,57.23
2023-03-29T07:19:05.406Z,56.89
2023-03-29T07:22:02.152Z,56.65
2023-03-29T07:24:42.205Z,56.74
2023-03-29T07:27:14.535Z,56.61
2023-03-29T07:29:56.513Z,56.59
2023-03-29T07:32:41.142Z,56.68
2023-03-29T07:35:21.608Z,56.64
2023-03-29T07:37:51.780Z,56.09
2023-03-29T07:40:29.948Z,55.77
2023-03-29T07:43:09.382Z,55.23
2023-03-29T07:45:45.363Z,55.54
2023-03-29T07:48:20.549Z,55.35
2023-03-29T07:51:01.002Z,55.13
2023-03-29T07:53:42.725Z,54.98
2023-03-29T07:56:37.656Z,54.68
2023-03-29T07:59:25.268Z,54.68
2023-03-29T08:02:02.046Z,54.84
2023-03-29T08:04:35.178Z,54.38
2023-03-29T08:07:33.389Z,54.11
2023-03-29T08:10:40.587Z,53.89
2023-03-29T08:13:22.691Z,53.66
2023-03-29T08:16:14.670Z,53.31
2023-03-29T08:18:51.800Z,53.49
2023-03-29T08:21:30.626Z,53.64
2023-03-29T08:24:03.089Z,53.47
2023-03-29T08:26:47.241Z,53.11
2023-03-29T08:29:22.713Z,52.96
2023-03-29T08:31:54.649Z,52.85
2023-03-29T08:34:29.177Z,52.56
2023-03-29T08:37:18.655Z,51.38
2023-03-29T08:39:52.254Z,51.32
2023-03-29T08:43:07.915Z,50.77
2023-03-29T08:46:14.788Z,50.14
2023-03-29T08:49:00.698Z,50.52
2023-03-29T08:51:42.816Z,49.79
2023-03-29T08:54:22.334Z,49.15
2023-03-29T08:57:49.213Z,49.13
2023-03-29T09:00:35.950Z,48.94
2023-03-29T09:03:24.498Z,48.15
2023-03-29T09:06:19.971Z,48.38
2023-03-29T09:08:51.916Z,48.32
2023-03-29T09:11:24.404Z,47.60
2023-03-29T09:14:21.779Z,46.70
2023-03-29T09:17:10.922Z,46.69
2023-03-29T09:19:54.492Z,47.00
2023-03-29T09:23:03.493Z,46.72
2023-03-29T09:26:00.966Z,46.40
2023-03-29T09:28:49.013Z,46.03
2023-03-29T09:31:27.276Z,45.50
2023-03-29T09:34:04.109Z,45.55
2023-03-29T09:37:21.842Z,45.39
2023-03-29T09:39:53.684Z,44.83
2023-03-29T09:42:30.091Z,44.86
2023-03-29T09:45:09.050Z,44.65
2023-03-29T09:48:12.840Z,44.68
2023-03-29T09:50:49.019Z,45.16
2023-03-29T09:53:19.942Z,44.72
2023-03-29T09:56:02.436Z,44.01
2023-03-29T09:58:53.722Z,43.65
2023-03-29T10:01:27.263Z,43.49
2023-03-29T10:03:58.038Z,43.77
2023-03-29T10:06:27.767Z,43.59
2023-03-29T10:09:02.499Z,43.22
2023-03-29T10:12:08.143Z,43.64
2023-03-29T10:15:00.601Z,44.14
2023-03-29T10:17:33.611Z,43.95
2023-03-29T10:20:14.594Z,43.44
2023-03-29T10:22:56.091Z,43.79
2023-03-29T10:25:35.051Z,43.67
2023-03-29T10:28:10.510Z,43.60
2023-03-29T10:30:40.456Z,43.20
2023-03-29T10:33:27.892Z,43.25
2023-03-29T10:36:03.830Z,43.15
2023-03-29T10:38:36.662Z,42.48
2023-03-29T10:41:16.067Z,42.83
2023-03-29T10:43:52.042Z,41.51
2023-03-29T10:46:47.712Z,41.03
2023-03-29T10:49:20.296Z,41.71
2023-03-29T10:51:54.606Z,41.82
2023-03-29T10:54:27.366Z,41.23
2023-03-29T10:57:01.882Z,41.04
2023-03-29T10:59:49.722Z,39.85
2023-03-29T11:02:49.556Z,39.70
2023-03-29T11:05:25.794Z,39.11
2023-03-29T11:08:26.175Z,40.17
2023-03-29T11:11:14.696Z,39.52
2023-03-29T11:14:14.716Z,39.23
2023-03-29T11:17:18.351Z,39.13
2023-03-29T11:20:49.245Z,38.42
2023-03-29T11:23:26.353Z,39.12
2023-03-29T11:26:17.648Z,39.26
2023-03-29T11:29:38.565Z,39.36
2023-03-29T11:32:14.334Z,39.06
2023-03-29T11:35:03.811Z,38.95
2023-03-29T11:41:53.561Z,38.65
2023-03-29T11:44:35.641Z,38.84
2023-03-29T11:47:22.453Z,38.65
2023-03-29T11:50:09.244Z,38.48
2023-03-29T11:52:49.652Z,38.42
2023-03-29T11:55:33.339Z,38.61
2023-03-29T11:58:19.611Z,38.40
2023-03-29T12:00:56.409Z,38.54
2023-03-29T12:03:43.596Z,37.74
2023-03-29T12:10:13.775Z,38.09
2023-03-29T12:12:49.654Z,37.81
2023-03-29T12:15:25.053Z,37.57
2023-03-29T12:18:12.526Z,38.17
2023-03-29T12:20:42.315Z,38.36
2023-03-29T12:23:18.082Z,37.68
2023-03-29T12:26:17.238Z,37.82
2023-03-29T12:28:57.021Z,37.25
2023-03-29T12:31:39.925Z,37.34
2023-03-29T12:34:42.400Z,37.88
2023-03-29T12:38:05.689Z,37.58
2023-03-29T12:41:02.322Z,37.89
2023-03-29T12:43:54.990Z,38.10
2023-03-29T12:46:40.562Z,37.28
2023-03-29T12:49:39.254Z,37.08
2023-03-29T12:52:32.178Z,36.83
2023-03-29T12:55:05.413Z,36.81
2023-03-29T12:58:09.925Z,36.91
2023-03-29T13:00:42.584Z,37.36
2023-03-29T13:03:40.589Z,37.92
2023-03-29T13:06:13.458Z,36.69
2023-03-29T13:08:45.417Z,36.05
2023-03-29T13:11:41.035Z,36.04
2023-03-29T13:14:21.415Z,36.35
2023-03-29T13:16:54.318Z,36.41
2023-03-29T13:19:45.196Z,36.26
2023-03-29T13:22:23.854Z,36.65
2023-03-29T13:25:15.756Z,36.52
2023-03-29T13:27:54.672Z,36.28
2023-03-29T13:30:29.302Z,36.18
2023-03-29T13:33:38.439Z,36.45
2023-03-29T13:36:24.488Z,36.66
2023-03-29T13:38:55.758Z,37.07
2023-03-29T13:41:33.621Z,37.39
2023-03-29T13:44:03.384Z,37.00
2023-03-29T13:46:43.181Z,37.30
2023-03-29T13:49:23.479Z,36.89
2023-03-29T13:51:55.252Z,36.89
2023-03-29T13:54:36.115Z,36.92
2023-03-29T13:57:20.824Z,36.84
2023-03-29T13:59:58.310Z,36.35
2023-03-29T14:02:44.422Z,36.80
2023-03-29T14:05:19.607Z,37.42
2023-03-29T14:07:53.197Z,36.97
2023-03-29T14:10:27.557Z,37.19
2023-03-29T14:13:03.223Z,37.10
2023-03-29T14:16:03.177Z,37.13
2023-03-29T14:18:38.797Z,37.49
2023-03-29T14:21:13.324Z,37.31
2023-03-29T14:23:46.940Z,37.71
2023-03-29T14:26:21.728Z,37.43
2023-03-29T14:29:05.732Z,37.82
2023-03-29T14:31:39.132Z,38.16
2023-03-29T14:34:19.421Z,38.04
2023-03-29T14:36:50.350Z,38.14
2023-03-29T14:39:24.583Z,38.20
2023-03-29T14:42:05.265Z,38.77
2023-03-29T14:44:47.114Z,38.92
2023-03-29T14:47:29.109Z,39.31
2023-03-29T14:50:02.618Z,39.51
2023-03-29T14:52:32.946Z,40.00
2023-03-29T14:55:06.451Z,39.69
2023-03-29T14:57:38.926Z,39.47
2023-03-29T15:00:18.537Z,39.68
2023-03-29T15:03:05.252Z,39.97
2023-03-29T15:05:44.327Z,40.55
2023-03-29T15:08:28.246Z,41.06
2023-03-29T15:10:57.852Z,41.42
2023-03-29T15:13:27.943Z,42.09
2023-03-29T15:16:01.830Z,42.11
2023-03-29T15:18:40.289Z,42.36
2023-03-29T15:21:13.909Z,42.74
2023-03-29T15:23:51.925Z,43.23
2023-03-29T15:26:30.420Z,43.61
2023-03-29T15:29:10.371Z,43.83
2023-03-29T15:31:54.353Z,44.33
2023-03-29T15:34:36.610Z,44.61
2023-03-29T15:37:13.258Z,44.76
2023-03-29T15:39:44.832Z,44.87
2023-03-29T15:42:14.837Z,45.09
2023-03-29T15:44:47.531Z,45.25
2023-03-29T15:47:17.332Z,45.31
2023-03-29T15:49:48.172Z,45.37
2023-03-29T15:52:21.014Z,45.48
2023-03-29T15:54:53.735Z,45.67
2023-03-29T15:57:24.596Z,45.76
2023-03-29T15:59:58.134Z,46.13
2023-03-29T16:02:30.444Z,46.40
2023-03-29T16:05:03.871Z,46.49
2023-03-29T16:07:37.050Z,46.67
2023-03-29T16:10:10.677Z,46.86
2023-03-29T16:12:41.361Z,46.98
2023-03-29T16:15:21.576Z,47.24
2023-03-29T16:17:56.879Z,47.65
2023-03-29T16:20:29.796Z,47.75
2023-03-29T16:23:00.724Z,47.81
2023-03-29T16:25:31.215Z,47.78
2023-03-29T16:28:00.544Z,48.00
2023-03-29T16:30:32.200Z,48.12
2023-03-29T16:33:06.809Z,48.29
2023-03-29T16:35:42.881Z,48.35
2023-03-29T16:38:17.493Z,48.55
2023-03-29T16:40:55.678Z,48.87
2023-03-29T16:43:29.257Z,49.18
2023-03-29T16:46:07.926Z,49.29
2023-03-29T16:48:43.185Z,49.46
2023-03-29T16:51:16.049Z,49.56
2023-03-29T16:53:48.176Z,49.81
2023-03-29T16:56:18.901Z,50.07
2023-03-29T16:58:51.153Z,50.41
2023-03-29T17:01:28.742Z,50.61
2023-03-29T17:04:02.516Z,50.92
2023-03-29T17:06:33.336Z,50.95
2023-03-29T17:09:10.360Z,50.83
2023-03-29T17:11:51.442Z,50.94
2023-03-29T17:14:29.200Z,51.10
2023-03-29T17:17:03.031Z,51.31
2023-03-29T17:19:33.790Z,51.50
2023-03-29T17:22:10.289Z,51.77
2023-03-29T17:24:44.111Z,52.13
2023-03-29T17:27:19.655Z,52.48
2023-03-29T17:30:02.153Z,52.61
2023-03-29T17:32:31.636Z,52.77
2023-03-29T17:35:04.660Z,52.68
2023-03-29T17:37:34.381Z,52.79
2023-03-29T17:40:12.773Z,52.73
2023-03-29T17:42:55.202Z,52.97
2023-03-29T17:45:30.843Z,53.22
2023-03-29T17:48:06.050Z,53.25
2023-03-29T17:50:36.343Z,53.42
2023-03-29T17:53:10.740Z,53.53
2023-03-29T17:55:44.147Z,53.83
2023-03-29T17:58:16.913Z,53.85
2023-03-29T18:00:50.127Z,53.95
2023-03-29T18:03:26.931Z,54.19
2023-03-29T18:05:59.047Z,54.31
2023-03-29T18:08:34.303Z,54.38
2023-03-29T18:11:22.324Z,54.45
2023-03-29T18:14:00.200Z,54.55
2023-03-29T18:16:32.470Z,54.77
2023-03-29T18:19:11.018Z,55.11
2023-03-29T18:21:48.330Z,55.53
2023-03-29T18:24:34.337Z,55.86
2023-03-29T18:27:26.353Z,55.96
2023-03-29T18:29:56.088Z,56.25
2023-03-29T18:32:57.999Z,56.43
2023-03-29T18:35:35.885Z,56.47
2023-03-29T18:38:17.604Z,56.70
2023-03-29T18:41:18.386Z,56.63
2023-03-29T18:44:01.453Z,56.58
2023-03-29T18:46:38.602Z,56.80
2023-03-29T18:49:23.950Z,56.84
2023-03-29T18:52:05.991Z,56.82
2023-03-29T18:55:04.121Z,56.70
2023-03-29T18:57:42.755Z,56.90
2023-03-29T19:00:29.137Z,56.87
2023-03-29T19:03:02.691Z,57.04
2023-03-29T19:05:38.013Z,57.12
2023-03-29T19:08:13.026Z,57.37
2023-03-29T19:10:57.481Z,57.45
2023-03-29T19:13:34.725Z,57.51
2023-03-29T19:16:29.699Z,57.63
2023-03-29T19:19:12.795Z,57.65
2023-03-29T19:22:00.563Z,57.78
2023-03-29T19:24:31.348Z,57.88
2023-03-29T19:27:10.211Z,57.96
2023-03-29T19:29:48.344Z,58.06
2023-03-29T19:32:33.743Z,58.14
2023-03-29T19:35:06.277Z,58.36
2023-03-29T19:37:35.642Z,58.36
2023-03-29T19:40:11.559Z,58.37
2023-03-29T19:42:43.777Z,58.60
2023-03-29T19:45:20.021Z,58.57
2023-03-29T19:48:07.470Z,58.79
2023-03-29T19:50:41.011Z,58.91
2023-03-29T19:53:15.480Z,59.17
2023-03-29T19:55:50.644Z,59.36
2023-03-29T19:58:57.165Z,59.54
2023-03-29T20:01:35.543Z,59.74
2023-03-29T20:04:09.447Z,59.99
2023-03-29T20:06:52.856Z,60.17
2023-03-29T20:09:28.902Z,60.32
2023-03-29T20:11:59.246Z,60.34
2023-03-29T20:14:29.174Z,60.55
2023-03-29T20:17:25.988Z,60.76
2023-03-29T20:20:09.129Z,60.74
2023-03-29T20:22:58.662Z,60.77
2023-03-29T20:25:29.557Z,60.69
2023-03-29T20:27:59.969Z,60.66
2023-03-29T20:30:32.637Z,60.73
2023-03-29T20:33:23.356Z,60.70
2023-03-29T20:36:03.120Z,60.74
2023-03-29T20:38:43.655Z,60.77
2023-03-29T20:41:25.949Z,60.83
2023-03-29T20:44:00.880Z,60.95
2023-03-29T20:46:54.810Z,61.26
2023-03-29T20:49:27.794Z,61.37
2023-03-29T20:52:00.345Z,61.33
2023-03-29T20:54:29.980Z,61.45
2023-03-29T20:57:03.003Z,61.65
2023-03-29T20:59:38.304Z,61.81
2023-03-29T21:02:11.714Z,61.94
2023-03-29T21:05:15.507Z,62.04
2023-03-29T21:07:57.177Z,62.17
2023-03-29T21:10:49.191Z,62.37
2023-03-29T21:13:22.910Z,62.50
2023-03-29T21:15:58.385Z,62.72
2023-03-29T21:18:35.244Z,62.91
2023-03-29T21:21:16.468Z,63.04
2023-03-29T21:23:57.278Z,63.07
2023-03-29T21:26:36.307Z,63.06
2023-03-29T21:29:20.871Z,63.12
2023-03-29T21:32:09.205Z,63.16
2023-03-29T21:34:53.161Z,63.16
2023-03-29T21:37:32.898Z,63.19
2023-03-29T21:40:16.965Z,63.22
2023-03-29T21:42:57.750Z,63.13
2023-03-29T21:45:32.442Z,63.13
2023-03-29T21:48:08.957Z,63.17
2023-03-29T21:50:45.589Z,63.13
2023-03-29T21:53:23.282Z,63.27
2023-03-29T21:56:23.307Z,63.34
2023-03-29T21:59:04.997Z,63.31
2023-03-29T22:01:48.244Z,63.36
2023-03-29T22:04:29.550Z,63.45
2023-03-29T22:07:22.004Z,63.30
2023-03-29T22:10:16.955Z,63.30
2023-03-29T22:13:00.386Z,63.32
2023-03-29T22:15:43.107Z,63.32
2023-03-29T22:18:25.409Z,63.16
2023-03-29T22:21:00.184Z,63.16
2023-03-29T22:23:47.583Z,63.25
2023-03-29T22:26:27.873Z,63.34
2023-03-29T22:29:06.279Z,63.44
2023-03-29T22:31:52.777Z,63.43
2023-03-29T22:34:34.737Z,63.34
2023-03-29T22:37:06.994Z,63.25
2023-03-29T22:39:46.860Z,63.28
2023-03-29T22:42:39.481Z,63.09
2023-03-29T22:45:14.436Z,63.19
2023-03-29T22:47:46.550Z,63.20
2023-03-29T22:50:15.902Z,63.20
2023-03-29T22:52:54.611Z,63.29
2023-03-29T22:55:27.373Z,63.32
2023-03-29T22:58:08.883Z,63.34
2023-03-29T23:00:54.281Z,63.50
2023-03-29T23:03:28.457Z,63.46
2023-03-29T23:06:02.697Z,63.46
2023-03-29T23:08:42.034Z,63.28
2023-03-29T23:11:30.885Z,63.20
2023-03-29T23:14:14.624Z,63.22
2023-03-29T23:16:52.029Z,63.08
2023-03-29T23:19:38.304Z,63.03
2023-03-29T23:22:30.249Z,62.90
2023-03-29T23:25:06.759Z,62.90
2023-03-29T23:27:35.706Z,62.71
2023-03-29T23:30:09.158Z,62.58
2023-03-29T23:32:52.730Z,62.44
2023-03-29T23:35:48.198Z,62.36
2023-03-29T23:38:22.584Z,62.26
2023-03-29T23:41:08.776Z,62.14
2023-03-29T23:43:50.655Z,62.06
2023-03-29T23:46:30.004Z,62.09
2023-03-29T23:49:06.473Z,62.03
2023-03-29T23:51:48.567Z,62.04
2023-03-29T23:54:29.505Z,62.15
2023-03-29T23:57:11.151Z,62.18
2023-03-29T23:59:49.636Z,62.38
